Port Imperial New Jersey — WBR3133 — position and weather

sailwx.info

Track history (hours):
 
Tides and Currents Weather Stations Pressure Air Temp Water Temp Dewpoint Dewpoint Depression Visibility Wind Speed Wind Dir Waves Ship Positions

Port Imperial New Jersey

Owner: PORT IMPERIAL FERRY CORP, WEEHAWKEN, NJ. More information available from US FCC via Universal Licensing System and Coast Guard Vessel Documentation Center.

Last reported at 2017-Sep-19 11:30 UTC. Time now 2017-Sep-19 11:41 UTC.
Position N 40°46' W 074°01'.

Length 31 m.

Type: Passenger vessel. MMSI: 366990550.

Date/timePositionNaut miles runAvg speedWind from/ knotsBaromVisibWave heightAir tempDewpointWater temp
2017-Sep-19 11:30N 40°46' W 074°01'1 1.7
2017-Sep-19 11:00N 40°46' W 074°00'1 0.3
2017-Sep-19 08:07N 40°46' W 074°01'0 0.1
2017-Sep-19 08:01N 40°46' W 074°01'0 0.0
2017-Sep-19 02:06N 40°46' W 074°01'1 7.5
2017-Sep-19 02:00N 40°46' W 074°00'1 1.3
2017-Sep-19 01:30N 40°45' W 074°01'0 0.6
2017-Sep-19 01:00N 40°45' W 074°01'0 0.8
2017-Sep-19 00:30N 40°45' W 074°01'0 0.8
2017-Sep-19 00:01N 40°45' W 074°01'1 1.6
2017-Sep-18 23:30N 40°46' W 074°00'0 0.1
2017-Sep-18 23:00N 40°46' W 074°00'1 1.5
2017-Sep-18 22:30N 40°45' W 074°01'0 0.2
2017-Sep-18 22:00N 40°46' W 074°01'1 1.6
2017-Sep-18 21:30N 40°46' W 074°00'0 0.5
2017-Sep-18 21:00N 40°46' W 074°01'1 1.1
2017-Sep-18 20:31N 40°46' W 074°01'1 0.2
2017-Sep-18 14:20N 40°46' W 074°01'1 2.9
2017-Sep-18 14:00N 40°45' W 074°01'0 0.1
2017-Sep-18 13:30N 40°46' W 074°01'0 0.1
2017-Sep-18 13:00N 40°46' W 074°01'0 0.0
2017-Sep-18 12:31N 40°46' W 074°01'0 0.0
2017-Sep-18 12:00N 40°46' W 074°01'0 0.1
2017-Sep-18 11:31N 40°45' W 074°01'1 1.5
2017-Sep-18 11:00N 40°46' W 074°01'0 0.0
2017-Sep-18 03:02N 40°46' W 074°01'0 0.0
2017-Sep-18 03:00N 40°46' W 074°01'0 0.0
2017-Sep-17 23:40N 40°46' W 074°01'0 0.2
2017-Sep-17 23:30N 40°46' W 074°01'510.5
2017-Sep-17 23:00N 40°41' W 074°01'0 0.2
2017-Sep-17 22:30N 40°41' W 074°01'0 0.0
2017-Sep-17 22:00N 40°41' W 074°01'0 0.4
2017-Sep-17 21:30N 40°41' W 074°01'0 0.8
2017-Sep-17 21:00N 40°41' W 074°00'1 1.0
2017-Sep-17 20:30N 40°41' W 074°01'0 0.0
2017-Sep-17 20:00N 40°41' W 074°01'1 1.5
2017-Sep-17 19:30N 40°42' W 074°00'1 1.4
2017-Sep-17 19:00N 40°41' W 074°01'1 1.5
2017-Sep-17 18:30N 40°42' W 074°00'1 1.5
2017-Sep-17 18:00N 40°41' W 074°01'1 1.5
2017-Sep-17 17:30N 40°42' W 074°00'1 1.5
2017-Sep-17 17:00N 40°41' W 074°01'0 0.9
2017-Sep-17 16:30N 40°41' W 074°00'3 6.6
2017-Sep-17 16:00N 40°45' W 074°01'2 0.0
2017-Sep-15 23:55N 40°46' W 074°01'0 0.8
2017-Sep-15 23:30N 40°47' W 074°01'1 1.9
2017-Sep-15 23:00N 40°46' W 074°00'1 2.0
2017-Sep-15 22:30N 40°47' W 074°01'1 1.9
2017-Sep-15 22:00N 40°46' W 074°00'1 2.0
2017-Sep-15 21:30N 40°47' W 074°01'1 2.0
2017-Sep-15 21:00N 40°46' W 074°00'1 1.9
2017-Sep-15 20:30N 40°47' W 074°01'0 0.0
2017-Sep-15 20:00N 40°47' W 074°01'0 0.0
2017-Sep-15 15:52N 40°47' W 074°01'1 3.5
2017-Sep-15 15:30N 40°45' W 074°01'4 8.3
2017-Sep-15 15:00N 40°41' W 074°02'5 9.3
2017-Sep-15 14:30N 40°46' W 074°00'1 0.0
2017-Sep-14 17:36N 40°47' W 074°01'0 5.0
2017-Sep-14 17:30N 40°46' W 074°00'510.4
2017-Sep-14 17:00N 40°41' W 074°02'5 9.2
2017-Sep-14 16:30N 40°46' W 074°00'5 9.5
2017-Sep-14 16:00N 40°41' W 074°03'5 9.0
2017-Sep-14 15:30N 40°46' W 074°00'1 1.9
2017-Sep-14 15:00N 40°47' W 074°00'0 0.2
2017-Sep-14 14:19N 40°47' W 074°01'1 4.0
2017-Sep-14 14:00N 40°46' W 074°01'0 0.1
2017-Sep-14 13:30N 40°45' W 074°01'1 1.5
2017-Sep-14 13:00N 40°46' W 074°00'0 0.1
2017-Sep-14 12:30N 40°46' W 074°00'1 1.4
2017-Sep-14 12:00N 40°45' W 074°01'0 0.5
2017-Sep-14 11:31N 40°46' W 074°01'1 1.7
2017-Sep-14 11:00N 40°46' W 074°00'1 2.0
2017-Sep-14 10:30N 40°47' W 074°01'0 0.0
2017-Sep-13 14:34N 40°47' W 074°01'0 0.0
2017-Sep-13 14:30N 40°47' W 074°01'1 2.0
2017-Sep-13 14:00N 40°46' W 074°00'0 0.0
2017-Sep-13 13:30N 40°46' W 074°00'0 0.1
2017-Sep-13 13:00N 40°46' W 074°00'1 1.0
2017-Sep-13 12:30N 40°45' W 074°01'0 0.9
2017-Sep-13 12:00N 40°46' W 074°01'0 0.0
2017-Sep-13 11:30N 40°46' W 074°01'1 1.7
2017-Sep-13 11:00N 40°46' W 074°00'1 2.0
2017-Sep-13 10:30N 40°47' W 074°01'0 0.0
2017-Sep-13 07:54N 40°47' W 074°01'0 0.0
2017-Sep-12 14:28N 40°47' W 074°01'1 2.3
2017-Sep-12 14:01N 40°46' W 074°01'0 0.9
2017-Sep-12 13:31N 40°45' W 074°01'0 0.4
2017-Sep-12 13:00N 40°46' W 074°01'1 1.6
2017-Sep-12 12:30N 40°46' W 074°00'1 1.4
2017-Sep-12 12:00N 40°45' W 074°01'0 0.4
2017-Sep-12 11:30N 40°46' W 074°01'1 1.6
2017-Sep-12 11:00N 40°46' W 074°00'1 0.0
2017-Sep-11 14:45N 40°46' W 074°01'311.4
2017-Sep-11 14:30N 40°43' W 074°01'2 4.1
2017-Sep-11 14:00N 40°46' W 074°01'0 0.0
2017-Sep-11 13:30N 40°46' W 074°01'0 0.2
2017-Sep-11 13:00N 40°45' W 074°01'0 0.1
2017-Sep-11 12:30N 40°45' W 074°01'0 0.1
2017-Sep-11 12:00N 40°46' W 074°01'0 0.0
2017-Sep-11 11:30N 40°46' W 074°01'1 1.2
2017-Sep-11 11:00N 40°46' W 074°01'1 1.6
2017-Sep-11 10:28N 40°47' W 074°01'0 0.0
2017-Sep-11 10:00N 40°47' W 074°01'0 0.0
2017-Sep-11 09:30N 40°47' W 074°01'0 0.0
2017-Sep-11 00:03N 40°47' W 074°01'0 0.1
2017-Sep-11 00:00N 40°47' W 074°01'1 1.9
2017-Sep-10 23:30N 40°46' W 074°00'1 2.0
2017-Sep-10 23:00N 40°47' W 074°01'1 1.9
2017-Sep-10 22:30N 40°46' W 074°00'1 1.9
2017-Sep-10 22:00N 40°47' W 074°01'1 1.9
2017-Sep-10 21:30N 40°46' W 074°00'1 2.0
2017-Sep-10 21:00N 40°47' W 074°01'1 1.9
2017-Sep-10 20:30N 40°46' W 074°00'1 1.9
2017-Sep-10 20:01N 40°47' W 074°01'1 1.8
2017-Sep-10 19:31N 40°46' W 074°00'1 1.9
2017-Sep-10 19:01N 40°47' W 074°01'1 2.0
2017-Sep-10 18:31N 40°46' W 074°00'1 1.9
2017-Sep-10 18:00N 40°47' W 074°01'1 1.9
2017-Sep-10 17:30N 40°46' W 074°00'1 2.0
2017-Sep-10 17:00N 40°47' W 074°01'1 2.0
2017-Sep-10 16:30N 40°46' W 074°00'4 7.2
2017-Sep-10 16:00N 40°42' W 074°02'4 7.0
2017-Sep-10 15:30N 40°46' W 074°00'4 8.8
2017-Sep-10 15:00N 40°42' W 074°02'4 4.3
2017-Sep-10 14:00N 40°46' W 074°00'1 0.0
2017-Sep-09 22:01N 40°46' W 074°01'0 7.9
2017-Sep-09 22:00N 40°46' W 074°01'3 6.2
2017-Sep-09 21:30N 40°43' W 074°02'0 0.5
2017-Sep-09 21:00N 40°43' W 074°01'1 2.1
2017-Sep-09 20:31N 40°44' W 074°02'0 0.0
2017-Sep-09 20:01N 40°44' W 074°02'2 4.5
2017-Sep-09 19:31N 40°46' W 074°01'0 0.1
2017-Sep-09 19:00N 40°46' W 074°01'0 0.2
2017-Sep-09 18:30N 40°46' W 074°01'0 0.0
2017-Sep-09 18:00N 40°46' W 074°01'0 0.0
2017-Sep-09 17:30N 40°46' W 074°01'0 0.0
2017-Sep-09 17:01N 40°46' W 074°01'0 0.0
2017-Sep-09 16:31N 40°46' W 074°01'0 0.0
2017-Sep-09 16:01N 40°46' W 074°01'0 0.0
2017-Sep-09 15:30N 40°46' W 074°01'0 0.0
2017-Sep-09 15:01N 40°46' W 074°01'0 0.0
2017-Sep-09 14:30N 40°46' W 074°01'0 0.0
2017-Sep-09 14:00N 40°46' W 074°01'0 0.0
2017-Sep-09 13:30N 40°46' W 074°01'0 0.0
2017-Sep-09 13:00N 40°46' W 074°01'0 0.0
2017-Sep-09 12:31N 40°46' W 074°01'0 0.0
2017-Sep-09 12:00N 40°46' W 074°01'  
Track history (hours):
 
Tides and Currents Weather Stations Pressure Air Temp Water Temp Dewpoint Dewpoint Depression Visibility Wind Speed Wind Dir Waves Ship Positions

Port Imperial New Jersey

Owner: PORT IMPERIAL FERRY CORP, WEEHAWKEN, NJ. More information available from US FCC via Universal Licensing System and Coast Guard Vessel Documentation Center.

Last reported at 2017-Sep-19 11:30 UTC. Time now 2017-Sep-19 11:41 UTC.
Position N 40°46' W 074°01'.

Length 31 m.

Type: Passenger vessel. MMSI: 366990550.

Date/timePositionNaut miles runAvg speedWind from/ knotsBaromVisibWave heightAir tempDewpointWater temp
2017-Sep-19 11:30N 40°46' W 074°01'1 1.7
2017-Sep-19 11:00N 40°46' W 074°00'1 0.3
2017-Sep-19 08:07N 40°46' W 074°01'0 0.1
2017-Sep-19 08:01N 40°46' W 074°01'0 0.0
2017-Sep-19 02:06N 40°46' W 074°01'1 7.5
2017-Sep-19 02:00N 40°46' W 074°00'1 1.3
2017-Sep-19 01:30N 40°45' W 074°01'0 0.6
2017-Sep-19 01:00N 40°45' W 074°01'0 0.8
2017-Sep-19 00:30N 40°45' W 074°01'0 0.8
2017-Sep-19 00:01N 40°45' W 074°01'1 1.6
2017-Sep-18 23:30N 40°46' W 074°00'0 0.1
2017-Sep-18 23:00N 40°46' W 074°00'1 1.5
2017-Sep-18 22:30N 40°45' W 074°01'0 0.2
2017-Sep-18 22:00N 40°46' W 074°01'1 1.6
2017-Sep-18 21:30N 40°46' W 074°00'0 0.5
2017-Sep-18 21:00N 40°46' W 074°01'1 1.1
2017-Sep-18 20:31N 40°46' W 074°01'1 0.2
2017-Sep-18 14:20N 40°46' W 074°01'1 2.9
2017-Sep-18 14:00N 40°45' W 074°01'0 0.1
2017-Sep-18 13:30N 40°46' W 074°01'0 0.1
2017-Sep-18 13:00N 40°46' W 074°01'0 0.0
2017-Sep-18 12:31N 40°46' W 074°01'0 0.0
2017-Sep-18 12:00N 40°46' W 074°01'0 0.1
2017-Sep-18 11:31N 40°45' W 074°01'1 1.5
2017-Sep-18 11:00N 40°46' W 074°01'0 0.0
2017-Sep-18 03:02N 40°46' W 074°01'0 0.0
2017-Sep-18 03:00N 40°46' W 074°01'0 0.0
2017-Sep-17 23:40N 40°46' W 074°01'0 0.2
2017-Sep-17 23:30N 40°46' W 074°01'510.5
2017-Sep-17 23:00N 40°41' W 074°01'0 0.2
2017-Sep-17 22:30N 40°41' W 074°01'0 0.0
2017-Sep-17 22:00N 40°41' W 074°01'0 0.4
2017-Sep-17 21:30N 40°41' W 074°01'0 0.8
2017-Sep-17 21:00N 40°41' W 074°00'1 1.0
2017-Sep-17 20:30N 40°41' W 074°01'0 0.0
2017-Sep-17 20:00N 40°41' W 074°01'1 1.5
2017-Sep-17 19:30N 40°42' W 074°00'1 1.4
2017-Sep-17 19:00N 40°41' W 074°01'1 1.5
2017-Sep-17 18:30N 40°42' W 074°00'1 1.5
2017-Sep-17 18:00N 40°41' W 074°01'1 1.5
2017-Sep-17 17:30N 40°42' W 074°00'1 1.5
2017-Sep-17 17:00N 40°41' W 074°01'0 0.9
2017-Sep-17 16:30N 40°41' W 074°00'3 6.6
2017-Sep-17 16:00N 40°45' W 074°01'2 0.0
2017-Sep-15 23:55N 40°46' W 074°01'0 0.8
2017-Sep-15 23:30N 40°47' W 074°01'1 1.9
2017-Sep-15 23:00N 40°46' W 074°00'1 2.0
2017-Sep-15 22:30N 40°47' W 074°01'1 1.9
2017-Sep-15 22:00N 40°46' W 074°00'1 2.0
2017-Sep-15 21:30N 40°47' W 074°01'1 2.0
2017-Sep-15 21:00N 40°46' W 074°00'1 1.9
2017-Sep-15 20:30N 40°47' W 074°01'0 0.0
2017-Sep-15 20:00N 40°47' W 074°01'0 0.0
2017-Sep-15 15:52N 40°47' W 074°01'1 3.5
2017-Sep-15 15:30N 40°45' W 074°01'4 8.3
2017-Sep-15 15:00N 40°41' W 074°02'5 9.3
2017-Sep-15 14:30N 40°46' W 074°00'1 0.0
2017-Sep-14 17:36N 40°47' W 074°01'0 5.0
2017-Sep-14 17:30N 40°46' W 074°00'510.4
2017-Sep-14 17:00N 40°41' W 074°02'5 9.2
2017-Sep-14 16:30N 40°46' W 074°00'5 9.5
2017-Sep-14 16:00N 40°41' W 074°03'5 9.0
2017-Sep-14 15:30N 40°46' W 074°00'1 1.9
2017-Sep-14 15:00N 40°47' W 074°00'0 0.2
2017-Sep-14 14:19N 40°47' W 074°01'1 4.0
2017-Sep-14 14:00N 40°46' W 074°01'0 0.1
2017-Sep-14 13:30N 40°45' W 074°01'1 1.5
2017-Sep-14 13:00N 40°46' W 074°00'0 0.1
2017-Sep-14 12:30N 40°46' W 074°00'1 1.4
2017-Sep-14 12:00N 40°45' W 074°01'0 0.5
2017-Sep-14 11:31N 40°46' W 074°01'1 1.7
2017-Sep-14 11:00N 40°46' W 074°00'1 2.0
2017-Sep-14 10:30N 40°47' W 074°01'0 0.0
2017-Sep-13 14:34N 40°47' W 074°01'0 0.0
2017-Sep-13 14:30N 40°47' W 074°01'1 2.0
2017-Sep-13 14:00N 40°46' W 074°00'0 0.0
2017-Sep-13 13:30N 40°46' W 074°00'0 0.1
2017-Sep-13 13:00N 40°46' W 074°00'1 1.0
2017-Sep-13 12:30N 40°45' W 074°01'0 0.9
2017-Sep-13 12:00N 40°46' W 074°01'0 0.0
2017-Sep-13 11:30N 40°46' W 074°01'1 1.7
2017-Sep-13 11:00N 40°46' W 074°00'1 2.0
2017-Sep-13 10:30N 40°47' W 074°01'0 0.0
2017-Sep-13 07:54N 40°47' W 074°01'0 0.0
2017-Sep-12 14:28N 40°47' W 074°01'1 2.3
2017-Sep-12 14:01N 40°46' W 074°01'0 0.9
2017-Sep-12 13:31N 40°45' W 074°01'0 0.4
2017-Sep-12 13:00N 40°46' W 074°01'1 1.6
2017-Sep-12 12:30N 40°46' W 074°00'1 1.4
2017-Sep-12 12:00N 40°45' W 074°01'0 0.4
2017-Sep-12 11:30N 40°46' W 074°01'1 1.6
2017-Sep-12 11:00N 40°46' W 074°00'1 0.0
2017-Sep-11 14:45N 40°46' W 074°01'311.4
2017-Sep-11 14:30N 40°43' W 074°01'2 4.1
2017-Sep-11 14:00N 40°46' W 074°01'0 0.0
2017-Sep-11 13:30N 40°46' W 074°01'0 0.2
2017-Sep-11 13:00N 40°45' W 074°01'0 0.1
2017-Sep-11 12:30N 40°45' W 074°01'0 0.1
2017-Sep-11 12:00N 40°46' W 074°01'0 0.0
2017-Sep-11 11:30N 40°46' W 074°01'1 1.2
2017-Sep-11 11:00N 40°46' W 074°01'1 1.6
2017-Sep-11 10:28N 40°47' W 074°01'0 0.0
2017-Sep-11 10:00N 40°47' W 074°01'0 0.0
2017-Sep-11 09:30N 40°47' W 074°01'0 0.0
2017-Sep-11 00:03N 40°47' W 074°01'0 0.1
2017-Sep-11 00:00N 40°47' W 074°01'1 1.9
2017-Sep-10 23:30N 40°46' W 074°00'1 2.0
2017-Sep-10 23:00N 40°47' W 074°01'1 1.9
2017-Sep-10 22:30N 40°46' W 074°00'1 1.9
2017-Sep-10 22:00N 40°47' W 074°01'1 1.9
2017-Sep-10 21:30N 40°46' W 074°00'1 2.0
2017-Sep-10 21:00N 40°47' W 074°01'1 1.9
2017-Sep-10 20:30N 40°46' W 074°00'1 1.9
2017-Sep-10 20:01N 40°47' W 074°01'1 1.8
2017-Sep-10 19:31N 40°46' W 074°00'1 1.9
2017-Sep-10 19:01N 40°47' W 074°01'1 2.0
2017-Sep-10 18:31N 40°46' W 074°00'1 1.9
2017-Sep-10 18:00N 40°47' W 074°01'1 1.9
2017-Sep-10 17:30N 40°46' W 074°00'1 2.0
2017-Sep-10 17:00N 40°47' W 074°01'1 2.0
2017-Sep-10 16:30N 40°46' W 074°00'4 7.2
2017-Sep-10 16:00N 40°42' W 074°02'4 7.0
2017-Sep-10 15:30N 40°46' W 074°00'4 8.8
2017-Sep-10 15:00N 40°42' W 074°02'4 4.3
2017-Sep-10 14:00N 40°46' W 074°00'1 0.0
2017-Sep-09 22:01N 40°46' W 074°01'0 7.9
2017-Sep-09 22:00N 40°46' W 074°01'3 6.2
2017-Sep-09 21:30N 40°43' W 074°02'0 0.5
2017-Sep-09 21:00N 40°43' W 074°01'1 2.1
2017-Sep-09 20:31N 40°44' W 074°02'0 0.0
2017-Sep-09 20:01N 40°44' W 074°02'2 4.5
2017-Sep-09 19:31N 40°46' W 074°01'0 0.1
2017-Sep-09 19:00N 40°46' W 074°01'0 0.2
2017-Sep-09 18:30N 40°46' W 074°01'0 0.0
2017-Sep-09 18:00N 40°46' W 074°01'0 0.0
2017-Sep-09 17:30N 40°46' W 074°01'0 0.0
2017-Sep-09 17:01N 40°46' W 074°01'0 0.0
2017-Sep-09 16:31N 40°46' W 074°01'0 0.0
2017-Sep-09 16:01N 40°46' W 074°01'0 0.0
2017-Sep-09 15:30N 40°46' W 074°01'0 0.0
2017-Sep-09 15:01N 40°46' W 074°01'0 0.0
2017-Sep-09 14:30N 40°46' W 074°01'0 0.0
2017-Sep-09 14:00N 40°46' W 074°01'0 0.0
2017-Sep-09 13:30N 40°46' W 074°01'0 0.0
2017-Sep-09 13:00N 40°46' W 074°01'0 0.0
2017-Sep-09 12:31N 40°46' W 074°01'0 0.0
2017-Sep-09 12:00N 40°46' W 074°01'  

Dump ship's entire track history